sensor_id;sensor_type;location;lat;lon;timestamp;temperature;humidity
69747;DHT22;57018;50.278;19.134;2023-09-19T00:00:49;19.50;99.90
69747;DHT22;57018;50.278;19.134;2023-09-19T00:03:20;19.60;99.90
69747;DHT22;57018;50.278;19.134;2023-09-19T00:05:51;19.50;99.90
69747;DHT22;57018;50.278;19.134;2023-09-19T00:08:21;19.60;99.90
69747;DHT22;57018;50.278;19.134;2023-09-19T00:10:55;19.50;99.90
69747;DHT22;57018;50.278;19.134;2023-09-19T00:13:27;19.40;99.90
69747;DHT22;57018;50.278;19.134;2023-09-19T00:15:57;19.50;99.90
69747;DHT22;57018;50.278;19.134;2023-09-19T00:18:27;19.50;99.90
69747;DHT22;57018;50.278;19.134;2023-09-19T00:21:00;19.50;99.90
69747;DHT22;57018;50.278;19.134;2023-09-19T00:23:33;19.50;99.90
69747;DHT22;57018;50.278;19.134;2023-09-19T00:26:02;19.40;99.90
69747;DHT22;57018;50.278;19.134;2023-09-19T00:28:32;19.50;99.90
69747;DHT22;57018;50.278;19.134;2023-09-19T00:31:03;19.50;99.90
69747;DHT22;57018;50.278;19.134;2023-09-19T00:33:33;19.50;99.90
69747;DHT22;57018;50.278;19.134;2023-09-19T00:36:04;19.40;99.90
69747;DHT22;57018;50.278;19.134;2023-09-19T00:38:34;19.50;99.90
69747;DHT22;57018;50.278;19.134;2023-09-19T00:41:03;19.50;99.90
69747;DHT22;57018;50.278;19.134;2023-09-19T00:43:33;19.50;99.90
69747;DHT22;57018;50.278;19.134;2023-09-19T00:46:04;19.50;99.90
69747;DHT22;57018;50.278;19.134;2023-09-19T00:48:40;19.50;99.90
69747;DHT22;57018;50.278;19.134;2023-09-19T00:51:12;19.60;99.90
69747;DHT22;57018;50.278;19.134;2023-09-19T00:53:47;19.60;99.90
69747;DHT22;57018;50.278;19.134;2023-09-19T00:56:17;19.70;99.90
69747;DHT22;57018;50.278;19.134;2023-09-19T00:58:47;19.70;99.90
69747;DHT22;57018;50.278;19.134;2023-09-19T01:01:18;19.70;99.90
69747;DHT22;57018;50.278;19.134;2023-09-19T01:03:48;19.70;99.90
69747;DHT22;57018;50.278;19.134;2023-09-19T01:06:18;19.70;99.90
69747;DHT22;57018;50.278;19.134;2023-09-19T01:08:48;19.80;99.90
69747;DHT22;57018;50.278;19.134;2023-09-19T01:11:21;19.70;99.90
69747;DHT22;57018;50.278;19.134;2023-09-19T01:14:01;19.80;99.90
69747;DHT22;57018;50.278;19.134;2023-09-19T01:16:41;19.90;99.90
69747;DHT22;57018;50.278;19.134;2023-09-19T01:22:19;19.80;99.90
69747;DHT22;57018;50.278;19.134;2023-09-19T01:25:13;19.80;99.90
69747;DHT22;57018;50.278;19.134;2023-09-19T01:28:11;19.80;99.90
69747;DHT22;57018;50.278;19.134;2023-09-19T01:30:45;19.80;99.90
69747;DHT22;57018;50.278;19.134;2023-09-19T01:33:18;19.80;99.90
69747;DHT22;57018;50.278;19.134;2023-09-19T01:35:48;19.70;99.90
69747;DHT22;57018;50.278;19.134;2023-09-19T01:38:18;19.70;99.90
69747;DHT22;57018;50.278;19.134;2023-09-19T01:40:56;19.60;99.90
69747;DHT22;57018;50.278;19.134;2023-09-19T01:43:32;19.60;99.90
69747;DHT22;57018;50.278;19.134;2023-09-19T01:46:08;19.60;99.90
69747;DHT22;57018;50.278;19.134;2023-09-19T01:48:43;19.60;99.90
69747;DHT22;57018;50.278;19.134;2023-09-19T01:51:24;19.60;99.90
69747;DHT22;57018;50.278;19.134;2023-09-19T01:54:04;19.60;99.90
69747;DHT22;57018;50.278;19.134;2023-09-19T01:56:42;19.60;99.90
69747;DHT22;57018;50.278;19.134;2023-09-19T01:59:24;19.70;99.90
69747;DHT22;57018;50.278;19.134;2023-09-19T02:01:56;19.70;99.90
69747;DHT22;57018;50.278;19.134;2023-09-19T02:04:27;19.80;99.90
69747;DHT22;57018;50.278;19.134;2023-09-19T02:06:57;19.80;99.90
69747;DHT22;57018;50.278;19.134;2023-09-19T02:09:27;19.80;99.90
69747;DHT22;57018;50.278;19.134;2023-09-19T02:11:57;19.80;99.90
69747;DHT22;57018;50.278;19.134;2023-09-19T02:14:27;20.00;99.90
69747;DHT22;57018;50.278;19.134;2023-09-19T02:16:58;19.90;99.90
69747;DHT22;57018;50.278;19.134;2023-09-19T02:19:28;19.90;99.90
69747;DHT22;57018;50.278;19.134;2023-09-19T02:21:59;19.90;99.90
69747;DHT22;57018;50.278;19.134;2023-09-19T02:24:31;20.00;99.90
69747;DHT22;57018;50.278;19.134;2023-09-19T02:27:01;20.00;99.90
69747;DHT22;57018;50.278;19.134;2023-09-19T02:29:33;20.00;99.90
69747;DHT22;57018;50.278;19.134;2023-09-19T02:32:03;19.90;99.90
69747;DHT22;57018;50.278;19.134;2023-09-19T02:34:34;20.00;99.90
69747;DHT22;57018;50.278;19.134;2023-09-19T02:37:05;20.00;99.90
69747;DHT22;57018;50.278;19.134;2023-09-19T02:39:37;20.00;99.90
69747;DHT22;57018;50.278;19.134;2023-09-19T02:42:07;20.00;99.90
69747;DHT22;57018;50.278;19.134;2023-09-19T02:44:37;20.00;99.90
69747;DHT22;57018;50.278;19.134;2023-09-19T02:47:08;20.00;99.90
69747;DHT22;57018;50.278;19.134;2023-09-19T02:49:38;20.00;99.90
69747;DHT22;57018;50.278;19.134;2023-09-19T02:52:08;20.00;99.90
69747;DHT22;57018;50.278;19.134;2023-09-19T02:54:39;19.90;99.90
69747;DHT22;57018;50.278;19.134;2023-09-19T02:57:10;20.00;99.90
69747;DHT22;57018;50.278;19.134;2023-09-19T02:59:40;20.00;99.90
69747;DHT22;57018;50.278;19.134;2023-09-19T03:02:10;20.00;99.90
69747;DHT22;57018;50.278;19.134;2023-09-19T03:04:40;19.90;99.90
69747;DHT22;57018;50.278;19.134;2023-09-19T03:07:10;20.00;99.90
69747;DHT22;57018;50.278;19.134;2023-09-19T03:09:40;20.00;99.90
69747;DHT22;57018;50.278;19.134;2023-09-19T03:12:11;20.00;99.90
69747;DHT22;57018;50.278;19.134;2023-09-19T03:14:45;19.90;99.90
69747;DHT22;57018;50.278;19.134;2023-09-19T03:17:14;19.90;99.90
69747;DHT22;57018;50.278;19.134;2023-09-19T03:19:44;20.00;99.90
69747;DHT22;57018;50.278;19.134;2023-09-19T03:22:15;20.00;99.90
69747;DHT22;57018;50.278;19.134;2023-09-19T03:24:46;20.00;99.90
69747;DHT22;57018;50.278;19.134;2023-09-19T03:27:16;20.00;99.90
69747;DHT22;57018;50.278;19.134;2023-09-19T03:29:46;20.00;99.90
69747;DHT22;57018;50.278;19.134;2023-09-19T03:32:16;20.00;99.90
69747;DHT22;57018;50.278;19.134;2023-09-19T03:34:45;20.00;99.90
69747;DHT22;57018;50.278;19.134;2023-09-19T03:37:17;20.00;99.90
69747;DHT22;57018;50.278;19.134;2023-09-19T03:39:47;20.00;99.90
69747;DHT22;57018;50.278;19.134;2023-09-19T03:42:17;19.80;99.90
69747;DHT22;57018;50.278;19.134;2023-09-19T03:44:53;19.70;99.90
69747;DHT22;57018;50.278;19.134;2023-09-19T03:47:24;19.70;99.90
69747;DHT22;57018;50.278;19.134;2023-09-19T03:49:54;19.60;99.90
69747;DHT22;57018;50.278;19.134;2023-09-19T03:52:24;19.60;99.90
69747;DHT22;57018;50.278;19.134;2023-09-19T03:54:54;19.50;99.90
69747;DHT22;57018;50.278;19.134;2023-09-19T03:57:24;19.50;99.90
69747;DHT22;57018;50.278;19.134;2023-09-19T03:59:54;19.50;99.90
69747;DHT22;57018;50.278;19.134;2023-09-19T04:02:24;19.50;99.90
69747;DHT22;57018;50.278;19.134;2023-09-19T04:04:54;19.50;99.90
69747;DHT22;57018;50.278;19.134;2023-09-19T04:07:24;19.50;99.90
69747;DHT22;57018;50.278;19.134;2023-09-19T04:09:57;19.50;99.90
69747;DHT22;57018;50.278;19.134;2023-09-19T04:12:27;19.40;99.90
69747;DHT22;57018;50.278;19.134;2023-09-19T04:14:57;19.50;99.90
69747;DHT22;57018;50.278;19.134;2023-09-19T04:17:27;19.40;99.90
69747;DHT22;57018;50.278;19.134;2023-09-19T04:19:57;19.40;99.90
69747;DHT22;57018;50.278;19.134;2023-09-19T04:22:27;19.30;99.90
69747;DHT22;57018;50.278;19.134;2023-09-19T04:24:56;19.40;99.90
69747;DHT22;57018;50.278;19.134;2023-09-19T04:27:26;19.40;99.90
69747;DHT22;57018;50.278;19.134;2023-09-19T04:29:56;19.40;99.90
69747;DHT22;57018;50.278;19.134;2023-09-19T04:32:29;19.30;99.90
69747;DHT22;57018;50.278;19.134;2023-09-19T04:35:00;19.40;99.90
69747;DHT22;57018;50.278;19.134;2023-09-19T04:37:34;19.40;99.90
69747;DHT22;57018;50.278;19.134;2023-09-19T04:40:05;19.30;99.90
69747;DHT22;57018;50.278;19.134;2023-09-19T04:42:35;19.30;99.90
69747;DHT22;57018;50.278;19.134;2023-09-19T04:45:06;19.20;99.90
69747;DHT22;57018;50.278;19.134;2023-09-19T04:47:38;19.30;99.90
69747;DHT22;57018;50.278;19.134;2023-09-19T04:50:11;19.30;99.90
69747;DHT22;57018;50.278;19.134;2023-09-19T04:52:43;19.20;99.90
69747;DHT22;57018;50.278;19.134;2023-09-19T04:55:14;19.30;99.90
69747;DHT22;57018;50.278;19.134;2023-09-19T04:57:47;19.20;99.90
69747;DHT22;57018;50.278;19.134;2023-09-19T05:00:19;19.30;99.90
69747;DHT22;57018;50.278;19.134;2023-09-19T05:02:52;19.20;99.90
69747;DHT22;57018;50.278;19.134;2023-09-19T05:05:22;19.30;99.90
69747;DHT22;57018;50.278;19.134;2023-09-19T05:07:54;19.30;99.90
69747;DHT22;57018;50.278;19.134;2023-09-19T05:10:23;19.30;99.90
69747;DHT22;57018;50.278;19.134;2023-09-19T05:12:55;19.40;99.90
69747;DHT22;57018;50.278;19.134;2023-09-19T05:15:25;19.40;99.90
69747;DHT22;57018;50.278;19.134;2023-09-19T05:17:55;19.50;99.90
69747;DHT22;57018;50.278;19.134;2023-09-19T05:20:25;19.50;99.90
69747;DHT22;57018;50.278;19.134;2023-09-19T05:23:02;19.40;99.90
69747;DHT22;57018;50.278;19.134;2023-09-19T05:25:34;19.60;99.90
69747;DHT22;57018;50.278;19.134;2023-09-19T05:28:06;19.60;99.90
69747;DHT22;57018;50.278;19.134;2023-09-19T05:30:36;19.70;99.90
69747;DHT22;57018;50.278;19.134;2023-09-19T05:33:07;19.80;99.90
69747;DHT22;57018;50.278;19.134;2023-09-19T05:35:37;19.80;99.90
69747;DHT22;57018;50.278;19.134;2023-09-19T05:38:08;19.80;99.90
69747;DHT22;57018;50.278;19.134;2023-09-19T05:40:40;19.90;99.90
69747;DHT22;57018;50.278;19.134;2023-09-19T05:43:11;19.80;99.90
69747;DHT22;57018;50.278;19.134;2023-09-19T05:45:42;19.90;99.90
69747;DHT22;57018;50.278;19.134;2023-09-19T05:48:15;19.90;99.90
69747;DHT22;57018;50.278;19.134;2023-09-19T05:50:45;19.80;99.90
69747;DHT22;57018;50.278;19.134;2023-09-19T05:53:17;19.90;99.90
69747;DHT22;57018;50.278;19.134;2023-09-19T05:55:47;19.90;99.90
69747;DHT22;57018;50.278;19.134;2023-09-19T05:58:18;19.90;99.90
69747;DHT22;57018;50.278;19.134;2023-09-19T06:00:48;19.80;99.90
69747;DHT22;57018;50.278;19.134;2023-09-19T06:03:18;19.80;99.90
69747;DHT22;57018;50.278;19.134;2023-09-19T06:05:48;19.80;99.90
69747;DHT22;57018;50.278;19.134;2023-09-19T06:08:20;19.80;99.90
69747;DHT22;57018;50.278;19.134;2023-09-19T06:10:49;19.90;99.90
69747;DHT22;57018;50.278;19.134;2023-09-19T06:13:20;19.90;99.90
69747;DHT22;57018;50.278;19.134;2023-09-19T06:15:50;19.80;99.90
69747;DHT22;57018;50.278;19.134;2023-09-19T06:18:20;19.80;99.90
69747;DHT22;57018;50.278;19.134;2023-09-19T06:20:50;19.70;99.90
69747;DHT22;57018;50.278;19.134;2023-09-19T06:23:21;19.70;99.90
69747;DHT22;57018;50.278;19.134;2023-09-19T06:25:52;19.70;99.90
69747;DHT22;57018;50.278;19.134;2023-09-19T06:28:23;19.70;99.90
69747;DHT22;57018;50.278;19.134;2023-09-19T06:30:54;19.70;99.90
69747;DHT22;57018;50.278;19.134;2023-09-19T06:33:25;19.60;99.90
69747;DHT22;57018;50.278;19.134;2023-09-19T06:35:55;19.60;99.90
69747;DHT22;57018;50.278;19.134;2023-09-19T06:38:28;19.50;99.90
69747;DHT22;57018;50.278;19.134;2023-09-19T06:40:59;19.40;99.90
69747;DHT22;57018;50.278;19.134;2023-09-19T06:43:29;19.30;99.90
69747;DHT22;57018;50.278;19.134;2023-09-19T06:46:02;19.40;99.90
69747;DHT22;57018;50.278;19.134;2023-09-19T06:48:35;19.50;99.90
69747;DHT22;57018;50.278;19.134;2023-09-19T06:51:06;19.40;99.90
69747;DHT22;57018;50.278;19.134;2023-09-19T06:53:36;19.40;99.90
69747;DHT22;57018;50.278;19.134;2023-09-19T06:56:08;19.50;99.90
69747;DHT22;57018;50.278;19.134;2023-09-19T06:58:37;19.60;99.90
69747;DHT22;57018;50.278;19.134;2023-09-19T07:01:07;19.60;99.90
69747;DHT22;57018;50.278;19.134;2023-09-19T07:03:37;19.50;99.90
69747;DHT22;57018;50.278;19.134;2023-09-19T07:06:08;19.60;99.90
69747;DHT22;57018;50.278;19.134;2023-09-19T07:08:38;19.70;99.90
69747;DHT22;57018;50.278;19.134;2023-09-19T07:11:08;19.70;99.90
69747;DHT22;57018;50.278;19.134;2023-09-19T07:13:39;19.80;99.90
69747;DHT22;57018;50.278;19.134;2023-09-19T07:16:09;19.90;99.90
69747;DHT22;57018;50.278;19.134;2023-09-19T07:18:55;19.90;99.90
69747;DHT22;57018;50.278;19.134;2023-09-19T07:21:25;19.90;99.90
69747;DHT22;57018;50.278;19.134;2023-09-19T07:23:55;19.80;99.90
69747;DHT22;57018;50.278;19.134;2023-09-19T07:26:25;19.90;99.90
69747;DHT22;57018;50.278;19.134;2023-09-19T07:28:55;19.90;99.90
69747;DHT22;57018;50.278;19.134;2023-09-19T07:31:25;19.90;99.90
69747;DHT22;57018;50.278;19.134;2023-09-19T07:33:55;20.00;99.90
69747;DHT22;57018;50.278;19.134;2023-09-19T07:36:25;20.00;99.90
69747;DHT22;57018;50.278;19.134;2023-09-19T07:38:55;20.00;99.90
69747;DHT22;57018;50.278;19.134;2023-09-19T07:41:24;20.00;99.90
69747;DHT22;57018;50.278;19.134;2023-09-19T07:43:54;20.00;99.90
69747;DHT22;57018;50.278;19.134;2023-09-19T07:46:24;20.00;99.90
69747;DHT22;57018;50.278;19.134;2023-09-19T07:48:54;20.00;99.90
69747;DHT22;57018;50.278;19.134;2023-09-19T07:51:24;20.10;99.90
69747;DHT22;57018;50.278;19.134;2023-09-19T07:53:54;20.10;99.90
69747;DHT22;57018;50.278;19.134;2023-09-19T07:56:24;20.10;99.90
69747;DHT22;57018;50.278;19.134;2023-09-19T07:58:54;20.20;99.90
69747;DHT22;57018;50.278;19.134;2023-09-19T08:01:26;20.20;99.90
69747;DHT22;57018;50.278;19.134;2023-09-19T08:03:55;20.30;99.90
69747;DHT22;57018;50.278;19.134;2023-09-19T08:06:25;20.20;99.90
69747;DHT22;57018;50.278;19.134;2023-09-19T08:08:58;20.30;99.90
69747;DHT22;57018;50.278;19.134;2023-09-19T08:11:29;20.30;99.90
69747;DHT22;57018;50.278;19.134;2023-09-19T08:13:59;20.30;99.90
69747;DHT22;57018;50.278;19.134;2023-09-19T08:16:29;20.40;99.90
69747;DHT22;57018;50.278;19.134;2023-09-19T08:18:59;20.30;99.90
69747;DHT22;57018;50.278;19.134;2023-09-19T08:21:29;20.30;99.90
69747;DHT22;57018;50.278;19.134;2023-09-19T08:23:59;20.20;99.90
69747;DHT22;57018;50.278;19.134;2023-09-19T08:26:31;20.30;99.90
69747;DHT22;57018;50.278;19.134;2023-09-19T08:29:00;20.30;99.90
69747;DHT22;57018;50.278;19.134;2023-09-19T08:31:34;20.20;99.90
69747;DHT22;57018;50.278;19.134;2023-09-19T08:34:04;20.30;99.90
69747;DHT22;57018;50.278;19.134;2023-09-19T08:36:34;20.20;99.90
69747;DHT22;57018;50.278;19.134;2023-09-19T08:39:06;20.20;99.90
69747;DHT22;57018;50.278;19.134;2023-09-19T08:41:37;20.30;99.90
69747;DHT22;57018;50.278;19.134;2023-09-19T08:44:07;20.30;99.90
69747;DHT22;57018;50.278;19.134;2023-09-19T08:46:42;20.20;99.90
69747;DHT22;57018;50.278;19.134;2023-09-19T08:49:23;20.20;99.90
69747;DHT22;57018;50.278;19.134;2023-09-19T08:52:05;20.20;99.90
69747;DHT22;57018;50.278;19.134;2023-09-19T08:54:38;20.20;99.90
69747;DHT22;57018;50.278;19.134;2023-09-19T08:57:10;20.10;99.90
69747;DHT22;57018;50.278;19.134;2023-09-19T08:59:42;20.10;99.90
69747;DHT22;57018;50.278;19.134;2023-09-19T09:02:14;20.10;99.90
69747;DHT22;57018;50.278;19.134;2023-09-19T09:04:49;20.10;99.90
69747;DHT22;57018;50.278;19.134;2023-09-19T09:07:20;20.20;99.90
69747;DHT22;57018;50.278;19.134;2023-09-19T09:09:51;20.20;99.90
69747;DHT22;57018;50.278;19.134;2023-09-19T09:12:43;20.20;99.90
69747;DHT22;57018;50.278;19.134;2023-09-19T09:15:13;20.20;99.90
69747;DHT22;57018;50.278;19.134;2023-09-19T09:17:48;20.30;99.90
69747;DHT22;57018;50.278;19.134;2023-09-19T09:20:19;20.30;99.90
69747;DHT22;57018;50.278;19.134;2023-09-19T09:22:56;20.30;99.90
69747;DHT22;57018;50.278;19.134;2023-09-19T09:25:48;20.30;99.90
69747;DHT22;57018;50.278;19.134;2023-09-19T09:28:22;20.50;99.90
69747;DHT22;57018;50.278;19.134;2023-09-19T09:30:52;20.60;99.90
69747;DHT22;57018;50.278;19.134;2023-09-19T09:33:22;20.70;99.90
69747;DHT22;57018;50.278;19.134;2023-09-19T09:35:55;20.90;99.90
69747;DHT22;57018;50.278;19.134;2023-09-19T09:38:27;20.90;99.90
69747;DHT22;57018;50.278;19.134;2023-09-19T09:41:01;21.10;99.90
69747;DHT22;57018;50.278;19.134;2023-09-19T09:43:36;21.30;99.90
69747;DHT22;57018;50.278;19.134;2023-09-19T09:46:13;21.40;99.90
69747;DHT22;57018;50.278;19.134;2023-09-19T09:49:02;21.40;99.90
69747;DHT22;57018;50.278;19.134;2023-09-19T09:51:45;21.60;99.90
69747;DHT22;57018;50.278;19.134;2023-09-19T09:54:26;21.60;99.90
69747;DHT22;57018;50.278;19.134;2023-09-19T09:57:04;21.70;99.90
69747;DHT22;57018;50.278;19.134;2023-09-19T09:59:51;21.80;99.90
69747;DHT22;57018;50.278;19.134;2023-09-19T10:02:26;21.90;99.90
69747;DHT22;57018;50.278;19.134;2023-09-19T10:05:12;22.10;99.90
69747;DHT22;57018;50.278;19.134;2023-09-19T10:08:11;22.20;99.90
69747;DHT22;57018;50.278;19.134;2023-09-19T10:10:47;22.40;99.90
69747;DHT22;57018;50.278;19.134;2023-09-19T10:13:23;22.50;99.90
69747;DHT22;57018;50.278;19.134;2023-09-19T10:15:56;22.60;99.90
69747;DHT22;57018;50.278;19.134;2023-09-19T10:18:28;22.60;99.90
69747;DHT22;57018;50.278;19.134;2023-09-19T10:21:03;22.70;99.90
69747;DHT22;57018;50.278;19.134;2023-09-19T10:23:35;22.50;99.90
69747;DHT22;57018;50.278;19.134;2023-09-19T10:26:06;22.40;99.90
69747;DHT22;57018;50.278;19.134;2023-09-19T10:28:38;22.30;99.90
69747;DHT22;57018;50.278;19.134;2023-09-19T10:31:08;22.30;99.90
69747;DHT22;57018;50.278;19.134;2023-09-19T10:33:43;22.20;99.90
69747;DHT22;57018;50.278;19.134;2023-09-19T10:36:14;22.20;99.90
69747;DHT22;57018;50.278;19.134;2023-09-19T10:38:46;22.10;99.90
69747;DHT22;57018;50.278;19.134;2023-09-19T10:41:17;22.00;99.90
69747;DHT22;57018;50.278;19.134;2023-09-19T10:43:50;21.90;99.90
69747;DHT22;57018;50.278;19.134;2023-09-19T10:46:22;21.90;99.90
69747;DHT22;57018;50.278;19.134;2023-09-19T10:48:53;21.80;99.90
69747;DHT22;57018;50.278;19.134;2023-09-19T10:51:33;21.80;99.90
69747;DHT22;57018;50.278;19.134;2023-09-19T10:54:12;21.70;99.90
69747;DHT22;57018;50.278;19.134;2023-09-19T10:56:48;21.60;99.90
69747;DHT22;57018;50.278;19.134;2023-09-19T10:59:19;21.60;99.90
69747;DHT22;57018;50.278;19.134;2023-09-19T11:01:51;21.70;99.90
69747;DHT22;57018;50.278;19.134;2023-09-19T11:04:26;21.70;99.90
69747;DHT22;57018;50.278;19.134;2023-09-19T11:07:04;21.70;99.90
69747;DHT22;57018;50.278;19.134;2023-09-19T11:09:50;21.70;99.90
69747;DHT22;57018;50.278;19.134;2023-09-19T11:12:53;21.70;99.90
69747;DHT22;57018;50.278;19.134;2023-09-19T11:18:54;21.50;99.90
69747;DHT22;57018;50.278;19.134;2023-09-19T11:24:31;21.20;99.90
69747;DHT22;57018;50.278;19.134;2023-09-19T11:27:15;21.00;99.90
69747;DHT22;57018;50.278;19.134;2023-09-19T11:29:46;21.00;99.90
69747;DHT22;57018;50.278;19.134;2023-09-19T11:32:17;20.80;99.90
69747;DHT22;57018;50.278;19.134;2023-09-19T11:35:12;20.70;99.90
69747;DHT22;57018;50.278;19.134;2023-09-19T11:38:01;20.70;99.90
69747;DHT22;57018;50.278;19.134;2023-09-19T11:40:39;20.60;99.90
69747;DHT22;57018;50.278;19.134;2023-09-19T11:43:31;20.60;99.90
69747;DHT22;57018;50.278;19.134;2023-09-19T11:46:10;20.70;99.90
69747;DHT22;57018;50.278;19.134;2023-09-19T11:48:53;20.70;99.90
69747;DHT22;57018;50.278;19.134;2023-09-19T11:51:26;20.70;99.90
69747;DHT22;57018;50.278;19.134;2023-09-19T11:53:58;20.90;99.90
69747;DHT22;57018;50.278;19.134;2023-09-19T11:56:29;21.00;99.90
69747;DHT22;57018;50.278;19.134;2023-09-19T11:59:00;21.10;99.90
69747;DHT22;57018;50.278;19.134;2023-09-19T12:01:33;21.10;99.90
69747;DHT22;57018;50.278;19.134;2023-09-19T12:04:04;21.20;99.90
69747;DHT22;57018;50.278;19.134;2023-09-19T12:06:35;21.40;99.90
69747;DHT22;57018;50.278;19.134;2023-09-19T12:09:08;21.40;99.90
69747;DHT22;57018;50.278;19.134;2023-09-19T12:11:45;21.50;99.90
69747;DHT22;57018;50.278;19.134;2023-09-19T12:14:25;21.60;99.90
69747;DHT22;57018;50.278;19.134;2023-09-19T12:16:58;21.80;99.90
69747;DHT22;57018;50.278;19.134;2023-09-19T12:19:30;21.90;99.90
69747;DHT22;57018;50.278;19.134;2023-09-19T12:22:01;21.90;99.90
69747;DHT22;57018;50.278;19.134;2023-09-19T12:24:33;22.00;99.90
69747;DHT22;57018;50.278;19.134;2023-09-19T12:27:07;22.00;99.90
69747;DHT22;57018;50.278;19.134;2023-09-19T12:29:46;22.10;99.90
69747;DHT22;57018;50.278;19.134;2023-09-19T12:32:17;22.10;99.90
69747;DHT22;57018;50.278;19.134;2023-09-19T12:34:56;22.30;99.90
69747;DHT22;57018;50.278;19.134;2023-09-19T12:37:28;22.50;99.90
69747;DHT22;57018;50.278;19.134;2023-09-19T12:40:07;22.70;99.90
69747;DHT22;57018;50.278;19.134;2023-09-19T12:42:46;22.80;99.90
69747;DHT22;57018;50.278;19.134;2023-09-19T12:45:17;22.90;99.90
69747;DHT22;57018;50.278;19.134;2023-09-19T12:48:21;23.00;99.90
69747;DHT22;57018;50.278;19.134;2023-09-19T12:51:07;23.10;99.90
69747;DHT22;57018;50.278;19.134;2023-09-19T12:53:40;23.30;99.90
69747;DHT22;57018;50.278;19.134;2023-09-19T12:56:12;23.60;99.90
69747;DHT22;57018;50.278;19.134;2023-09-19T12:58:54;23.60;99.90
69747;DHT22;57018;50.278;19.134;2023-09-19T13:01:25;23.70;99.90
69747;DHT22;57018;50.278;19.134;2023-09-19T13:04:22;23.80;99.90
69747;DHT22;57018;50.278;19.134;2023-09-19T13:06:56;23.80;99.90
69747;DHT22;57018;50.278;19.134;2023-09-19T13:09:29;23.70;99.90
69747;DHT22;57018;50.278;19.134;2023-09-19T13:12:03;23.80;99.90
69747;DHT22;57018;50.278;19.134;2023-09-19T13:14:35;23.80;99.90
69747;DHT22;57018;50.278;19.134;2023-09-19T13:17:15;23.80;99.90
69747;DHT22;57018;50.278;19.134;2023-09-19T13:19:53;23.90;99.90
69747;DHT22;57018;50.278;19.134;2023-09-19T13:22:42;23.90;99.90
69747;DHT22;57018;50.278;19.134;2023-09-19T13:25:15;24.00;99.90
69747;DHT22;57018;50.278;19.134;2023-09-19T13:27:49;24.10;99.90
69747;DHT22;57018;50.278;19.134;2023-09-19T13:30:21;24.10;99.90
69747;DHT22;57018;50.278;19.134;2023-09-19T13:35:39;24.10;99.90
69747;DHT22;57018;50.278;19.134;2023-09-19T13:38:09;24.20;99.90
69747;DHT22;57018;50.278;19.134;2023-09-19T13:40:40;24.20;99.90
69747;DHT22;57018;50.278;19.134;2023-09-19T13:43:11;24.50;99.90
69747;DHT22;57018;50.278;19.134;2023-09-19T13:45:42;24.60;99.90
69747;DHT22;57018;50.278;19.134;2023-09-19T13:48:12;24.70;99.90
69747;DHT22;57018;50.278;19.134;2023-09-19T13:50:41;24.80;99.90
69747;DHT22;57018;50.278;19.134;2023-09-19T13:53:11;25.00;99.90
69747;DHT22;57018;50.278;19.134;2023-09-19T13:55:41;25.10;99.70
69747;DHT22;57018;50.278;19.134;2023-09-19T14:00:41;25.20;92.60
69747;DHT22;57018;50.278;19.134;2023-09-19T14:03:13;25.20;93.30
69747;DHT22;57018;50.278;19.134;2023-09-19T14:05:43;25.30;92.90
69747;DHT22;57018;50.278;19.134;2023-09-19T14:08:13;25.10;92.80
69747;DHT22;57018;50.278;19.134;2023-09-19T14:10:43;24.90;93.20
69747;DHT22;57018;50.278;19.134;2023-09-19T14:15:51;24.70;94.40
69747;DHT22;57018;50.278;19.134;2023-09-19T14:18:22;24.60;94.50
69747;DHT22;57018;50.278;19.134;2023-09-19T14:20:52;24.60;95.10
69747;DHT22;57018;50.278;19.134;2023-09-19T14:23:22;24.60;96.40
69747;DHT22;57018;50.278;19.134;2023-09-19T14:26:01;24.50;95.40
69747;DHT22;57018;50.278;19.134;2023-09-19T14:28:36;24.60;96.30
69747;DHT22;57018;50.278;19.134;2023-09-19T14:31:27;24.50;95.90
69747;DHT22;57018;50.278;19.134;2023-09-19T14:33:59;24.50;96.30
69747;DHT22;57018;50.278;19.134;2023-09-19T14:36:46;24.40;97.60
69747;DHT22;57018;50.278;19.134;2023-09-19T14:39:17;24.40;99.90
69747;DHT22;57018;50.278;19.134;2023-09-19T14:41:48;24.40;99.90
69747;DHT22;57018;50.278;19.134;2023-09-19T14:44:18;24.30;99.90
69747;DHT22;57018;50.278;19.134;2023-09-19T14:46:48;24.30;99.90
69747;DHT22;57018;50.278;19.134;2023-09-19T14:49:17;24.40;99.90
69747;DHT22;57018;50.278;19.134;2023-09-19T14:51:47;24.50;99.90
69747;DHT22;57018;50.278;19.134;2023-09-19T14:54:18;24.70;99.90
69747;DHT22;57018;50.278;19.134;2023-09-19T14:56:48;24.90;99.90
69747;DHT22;57018;50.278;19.134;2023-09-19T14:59:22;24.90;99.90
69747;DHT22;57018;50.278;19.134;2023-09-19T15:01:52;25.00;98.20
69747;DHT22;57018;50.278;19.134;2023-09-19T15:04:25;25.00;98.00
69747;DHT22;57018;50.278;19.134;2023-09-19T15:06:56;25.10;97.90
69747;DHT22;57018;50.278;19.134;2023-09-19T15:09:26;25.10;95.30
69747;DHT22;57018;50.278;19.134;2023-09-19T15:11:57;25.00;95.50
69747;DHT22;57018;50.278;19.134;2023-09-19T15:14:27;24.90;95.60
69747;DHT22;57018;50.278;19.134;2023-09-19T15:16:58;24.80;97.00
69747;DHT22;57018;50.278;19.134;2023-09-19T15:19:28;24.70;97.50
69747;DHT22;57018;50.278;19.134;2023-09-19T15:21:58;24.70;98.60
69747;DHT22;57018;50.278;19.134;2023-09-19T15:24:28;24.60;99.90
69747;DHT22;57018;50.278;19.134;2023-09-19T15:26:58;24.70;99.30
69747;DHT22;57018;50.278;19.134;2023-09-19T15:29:28;24.60;98.90
69747;DHT22;57018;50.278;19.134;2023-09-19T15:31:58;24.50;98.30
69747;DHT22;57018;50.278;19.134;2023-09-19T15:34:30;24.20;99.10
69747;DHT22;57018;50.278;19.134;2023-09-19T15:37:00;24.00;99.90
69747;DHT22;57018;50.278;19.134;2023-09-19T15:39:32;23.60;99.90
69747;DHT22;57018;50.278;19.134;2023-09-19T15:42:02;23.50;99.90
69747;DHT22;57018;50.278;19.134;2023-09-19T15:44:32;23.10;99.90
69747;DHT22;57018;50.278;19.134;2023-09-19T15:47:03;22.80;99.90
69747;DHT22;57018;50.278;19.134;2023-09-19T15:49:33;22.50;99.90
69747;DHT22;57018;50.278;19.134;2023-09-19T15:52:03;22.30;99.90
69747;DHT22;57018;50.278;19.134;2023-09-19T15:54:33;22.10;99.90
69747;DHT22;57018;50.278;19.134;2023-09-19T15:57:04;22.00;99.90
69747;DHT22;57018;50.278;19.134;2023-09-19T15:59:33;21.80;99.90
69747;DHT22;57018;50.278;19.134;2023-09-19T16:02:05;21.60;99.90
69747;DHT22;57018;50.278;19.134;2023-09-19T16:04:34;21.50;99.90
69747;DHT22;57018;50.278;19.134;2023-09-19T16:07:06;21.30;99.90